Archival Weather

Southern Wisconsin Rgnl

Janesville, Wisconsin (KJVL)

Report from: Wednesday, December 6, 2023 12:15 AM CST
Current time: Monday, June 17, 2024 6:20 AM CDT

Current weather – Weather history – Daily summaries
Weather forecast

Temperature2.0°C (35.6°F)
Wind chill-1.9°C (28.6°F)
Dew point-2.0°C (28.4°F)
Winds 8 kts (4.1 m/s, 9.2 mph) West-Northwest (290°)
Visibility10 mi. (16.1 km)
Clouds Ceiling: Overcast 2,900 ft. (884 m)
Altimeter30.28 in.Hg (1025 mB)
Relative humidity75 %
Density altitude-1,913 ft. (-583 m)
Remarks Fully automated report
Automated weather observing station with precipitation discriminator
Flight conditions Marginal Visual Meteorological Conditions
Raw dataKJVL 060615Z AUTO 29008KT 10SM OVC029 02/M02 A3028 RMK AO2
An error has occurred. This application may no longer respond until reloaded. Reload 🗙